Leakesville Junction, Virginia
Current Conditions -  °F | °C
As of 1:35 PM on Sunday 23 Nov 2014 (Local Time) from KSIF Reporting Station
Light Rain Light Rain  
Wind Chill: 49°   Ceiling: 2800
Heat Index: 49°   Visibility: 7mi
Dew Point: 39°   Wind: 0mph
Humidity: 68%   Direction: NA
Pressure: 30.09"   Gusts: NA
Location:  36.5899°N, 79.6585°W
Report Text: KSIF 231835Z AUTO 00000KT 7SM -RA OVC028 10/04 A3009 RMK AO2 T00950039
Loading
Personal Weather Stations






























Interactive Weather Map New forecast layout! Learn more

10-Day Weather Forecast

Advertisements
Track Severe Weather on mobile